Latest Weather Observations for Walgett

IDN60801

Issued at 6:33 pm EST Sunday 24 July 2016 (issued every 30 minutes, with the page automatically refreshed every 10 minutes)

About weather observations | Map of weather stations | Latest weather observations for NSW | Other Formats
Station Details ID: 052088 Name: WALGETT AIRPORT AWS Lat: -30.04 Lon: 148.12 Height: 133.0 m
Data from the previous 72 hours. | See also: Recent months at Walgett
Date/Time
EST
Temp
°C
App
Temp
°C
Dew
Point
°C
Rel
Hum
%
Delta-T
°C
Wind Press
QNH
hPa
Press
MSL
hPa
Rain since
9am
mm
Dir  Spd
km/h
Gust
km/h
Spd
kts
Gust
kts
24/06:00pm 11.3 8.4 4.5 63 3.1 NW 9 11 5 6 1015.8 1015.9 0.0
24/05:30pm 11.8 8.8 4.1 59 3.5 NNW 9 15 5 8 1015.2 1015.3 0.0
24/05:00pm 13.5 9.8 4.4 54 4.2 NNW 13 19 7 10 1014.9 1015.0 0.0
24/04:30pm 14.2 9.4 4.5 52 4.5 N 19 24 10 13 1014.5 1014.6 0.0
24/04:00pm 14.6 10.2 4.9 52 4.6 N 17 24 9 13 1014.3 1014.4 0.0
24/03:30pm 14.5 10.1 4.8 52 4.6 N 17 24 9 13 1014.5 1014.6 0.0
24/03:00pm 15.1 10.5 5.6 53 4.6 N 19 26 10 14 1015.0 1015.1 0.0
24/02:30pm 14.8 10.1 5.1 52 4.6 NNE 19 26 10 14 1015.1 1015.2 0.0
24/02:00pm 14.5 10.1 4.8 52 4.5 N 17 22 9 12 1015.4 1015.5 0.0
24/01:30pm 14.1 10.1 4.9 54 4.3 N 15 20 8 11 1015.9 1016.0 0.0
24/01:00pm 13.8 10.4 5.9 59 3.8 N 13 17 7 9 1016.2 1016.4 0.0
24/12:30pm 13.3 9.9 5.7 60 3.6 NNE 13 20 7 11 1016.6 1016.8 0.0
24/12:00pm 13.3 10.3 6.2 62 3.4 NNE 11 17 6 9 1017.4 1017.5 0.0
24/11:30am 13.2 10.1 5.6 60 3.6 NNE 11 17 6 9 1017.9 1018.0 0.0
24/11:00am 12.8 10.2 5.9 63 3.3 NE 9 13 5 7 1018.6 1018.7 0.0
24/10:30am 11.9 10.6 6.0 67 2.8 N 2 7 1 4 1018.6 1018.7 0.0
24/10:00am 11.2 10.5 6.9 75 2.1 CALM 0 0 0 0 1018.4 1018.5 0.0
24/09:30am 9.9 9.1 6.6 80 1.6 CALM 0 0 0 0 1018.7 1018.8 0.0
24/09:00am 8.9 8.3 7.2 89 0.8 CALM 0 0 0 0 1018.4 1018.5 0.0
24/08:30am 8.0 7.3 7.1 94 0.4 CALM 0 0 0 0 1018.2 1018.3 0.0
24/08:00am 7.4 6.7 6.8 96 0.3 CALM 0 0 0 0 1017.7 1017.8 0.0
24/07:30am 6.5 5.6 5.9 96 0.3 CALM 0 0 0 0 1017.6 1017.7 0.0
24/07:00am 5.9 4.8 5.2 95 0.3 CALM 0 0 0 0 1017.6 1017.7 0.0
24/06:30am 5.8 4.7 5.1 95 0.3 CALM 0 0 0 0 1017.0 1017.2 0.0
24/06:00am 5.7 4.6 5.1 96 0.3 CALM 0 0 0 0 1016.9 1017.1 0.0
24/05:30am 5.7 4.6 5.1 96 0.3 CALM 0 0 0 0 1016.6 1016.8 0.0
24/05:00am 5.1 3.9 4.7 97 0.2 CALM 0 0 0 0 1016.3 1016.5 0.0
24/04:30am 4.4 3.0 3.8 96 0.3 CALM 0 0 0 0 1015.9 1016.0 0.0
24/04:00am 4.1 2.7 3.5 96 0.2 CALM 0 0 0 0 1016.0 1016.1 0.0
24/03:30am 4.1 2.7 3.5 96 0.2 CALM 0 0 0 0 1015.8 1015.9 0.0
24/03:24am 4.2 2.8 3.6 96 0.2 CALM 0 0 0 0 1016.2 1016.4 0.0
24/03:00am 4.1 2.7 3.4 95 0.3 CALM 0 0 0 0 1015.7 1015.8 0.0
24/02:51am 4.2 2.8 3.3 94 0.4 CALM 0 0 0 0 1016.1 1016.2 0.0
24/02:30am 4.4 3.0 3.4 93 0.4 CALM 0 0 0 0 1016.0 1016.1 0.0
24/02:00am 5.2 3.9 4.3 94 0.4 CALM 0 0 0 0 1016.5 1016.7 0.0
24/01:30am 5.2 3.9 4.2 93 0.4 CALM 0 0 0 0 1016.9 1017.1 0.0
24/01:00am 5.5 4.2 4.3 92 0.5 CALM 0 0 0 0 1016.8 1017.0 0.0
24/12:30am 5.6 4.3 4.2 91 0.6 CALM 0 0 0 0 1017.1 1017.3 0.0
24/12:00am 6.0 4.8 4.6 91 0.6 CALM 0 0 0 0 1017.6 1017.7 0.0
 
Date/Time
EST
Temp
°C
App
Temp
°C
Dew
Point
°C
Rel
Hum
%
Delta-T
°C
Wind Press
QNH
hPa
Press
MSL
hPa
Rain since
9am
mm
Dir  Spd
km/h
Gust
km/h
Spd
kts
Gust
kts
23/11:30pm 6.1 4.9 4.6 90 0.7 CALM 0 0 0 0 1017.5 1017.6 0.0
23/11:00pm 5.8 4.5 4.0 88 0.8 CALM 0 0 0 0 1017.7 1017.8 0.0
23/10:30pm 5.8 4.5 4.0 88 0.8 CALM 0 0 0 0 1017.3 1017.4 0.0
23/10:00pm 5.8 4.3 3.1 83 1.1 CALM 0 0 0 0 1017.5 1017.6 0.0
23/09:30pm 7.5 6.3 4.6 82 1.3 CALM 0 0 0 0 1017.0 1017.2 0.0
23/09:00pm 8.1 6.5 4.7 79 1.5 S 2 6 1 3 1016.6 1016.8 0.0
23/08:30pm 7.7 5.1 4.3 79 1.5 S 7 9 4 5 1016.5 1016.7 0.0
23/08:00pm 7.9 4.6 4.3 78 1.6 SSE 11 13 6 7 1016.1 1016.2 0.0
23/07:30pm 8.8 5.7 3.6 70 2.3 SSW 9 17 5 9 1016.3 1016.5 0.0
23/07:00pm 8.7 5.9 3.3 69 2.3 SW 7 9 4 5 1016.2 1016.4 0.0
23/06:30pm 10.5 6.8 2.6 58 3.4 SSW 11 13 6 7 1015.6 1015.7 0.0
23/06:00pm 11.8 8.1 2.5 53 4.1 SW 11 13 6 7 1015.2 1015.3 0.0
23/05:30pm 13.5 9.4 2.4 47 4.9 SW 13 19 7 10 1015.1 1015.2 0.0
23/05:00pm 14.9 10.0 2.1 42 5.7 SW 17 28 9 15 1014.8 1014.9 0.0
23/04:30pm 15.8 10.4 2.2 40 6.1 WSW 20 26 11 14 1014.4 1014.5 0.0
23/04:00pm 16.2 10.5 2.6 40 6.2 WSW 22 33 12 18 1013.9 1014.0 0.0
23/03:30pm 16.5 10.6 1.8 37 6.6 SW 22 35 12 19 1013.8 1013.9 0.0
23/03:00pm 16.9 10.7 2.1 37 6.7 WSW 24 33 13 18 1013.7 1013.8 0.0
23/02:30pm 17.0 11.8 3.3 40 6.4 WSW 20 28 11 15 1013.1 1013.2 0.0
23/02:00pm 17.2 10.7 2.4 37 6.8 W 26 37 14 20 1013.1 1013.2 0.0
23/01:30pm 17.2 11.2 3.1 39 6.5 WSW 24 32 13 17 1013.1 1013.2 0.0
23/01:00pm 16.6 10.4 1.9 37 6.6 SW 24 35 13 19 1013.3 1013.4 0.0
23/12:30pm 16.6 10.4 2.2 38 6.5 SW 24 33 13 18 1013.6 1013.7 0.0
23/12:00pm 16.8 10.1 1.7 36 6.8 WSW 26 37 14 20 1014.0 1014.1 0.0
23/11:30am 16.5 9.2 0.2 33 7.1 WSW 28 37 15 20 1014.3 1014.4 0.0
23/11:00am 16.8 10.3 2.8 39 6.4 WSW 26 35 14 19 1014.2 1014.3 0.0
23/10:30am 16.3 8.7 0.4 34 6.9 WSW 30 39 16 21 1014.3 1014.4 0.0
23/10:00am 16.1 9.5 2.2 39 6.3 WSW 26 37 14 20 1014.2 1014.3 0.0
23/09:30am 15.9 10.0 4.0 45 5.6 WSW 24 35 13 19 1013.8 1013.9 0.0
23/09:00am 15.3 10.4 5.0 50 4.9 WSW 20 26 11 14 1013.7 1013.8 0.2
23/08:30am 14.5 10.6 5.3 54 4.4 WSW 15 22 8 12 1013.4 1013.5 0.2
23/08:00am 13.3 9.3 5.0 57 3.9 WSW 15 19 8 10 1013.1 1013.2 0.2
23/07:30am 11.4 8.2 5.1 65 2.9 W 11 15 6 8 1012.6 1012.7 0.2
23/07:00am 11.6 7.8 4.1 60 3.4 W 13 17 7 9 1012.0 1012.1 0.2
23/06:30am 13.8 8.9 3.9 51 4.5 WSW 19 26 10 14 1011.5 1011.6 0.2
23/06:00am 14.5 9.8 5.0 53 4.5 WSW 19 28 10 15 1011.0 1011.1 0.2
23/05:30am 14.9 9.2 5.1 52 4.6 SW 24 33 13 18 1010.4 1010.5 0.2
23/05:00am 16.0 10.2 6.2 52 4.8 SW 26 35 14 19 1009.9 1009.9 0.2
23/04:31am 17.5 11.7 8.1 54 4.8 SW 28 46 15 25 1009.0 1009.1 0.2
23/04:30am 17.5 12.0 9.2 58 4.3 SW 28 35 15 19 1009.0 1009.1 0.2
23/04:00am 19.5 14.7 11.8 61 4.3 WSW 28 35 15 19 1008.2 1008.3 0.2
23/03:30am 20.3 15.3 12.3 60 4.5 W 30 41 16 22 1007.6 1007.7 0.2
23/03:06am 20.7 16.3 12.9 61 4.5 W 28 46 15 25 1007.3 1007.4 0.2
23/03:00am 21.0 15.8 12.9 60 4.6 W 32 43 17 23 1007.2 1007.3 0.2
23/02:30am 20.9 17.9 13.8 64 4.1 WNW 22 30 12 16 1007.0 1007.1 0.2
23/02:00am 21.0 17.5 14.4 66 3.9 NW 26 37 14 20 1006.7 1006.8 0.2
23/01:30am 20.7 18.1 14.8 69 3.5 NW 22 33 12 18 1006.6 1006.7 0.2
23/01:00am 20.0 18.0 15.6 76 2.6 NNW 20 28 11 15 1006.8 1006.9 0.2
23/12:30am 20.0 18.2 16.0 78 2.4 NNW 20 30 11 16 1007.2 1007.3 0.2
23/12:00am 19.9 18.7 16.2 79 2.2 NW 17 24 9 13 1007.6 1007.7 0.2
 
Date/Time
EST
Temp
°C
App
Temp
°C
Dew
Point
°C
Rel
Hum
%
Delta-T
°C
Wind Press
QNH
hPa
Press
MSL
hPa
Rain since
9am
mm
Dir  Spd
km/h
Gust
km/h
Spd
kts
Gust
kts
22/11:30pm 20.6 19.1 16.4 77 2.5 NNW 19 24 10 13 1007.7 1007.8 0.2
22/11:00pm 20.0 19.1 16.8 82 2.0 NNW 17 24 9 13 1007.9 1008.0 0.2
22/10:30pm 20.2 19.8 17.2 83 1.8 NNW 15 20 8 11 1008.3 1008.4 0.2
22/10:00pm 20.3 20.0 17.3 83 1.8 NNW 15 19 8 10 1008.5 1008.6 0.2
22/09:30pm 20.4 20.6 17.6 84 1.7 NNW 13 19 7 10 1008.7 1008.8 0.2
22/09:00pm 20.4 20.4 17.2 82 2.0 NW 13 17 7 9 1008.7 1008.8 0.2
22/08:30pm 21.7 21.1 17.5 77 2.6 NNW 17 22 9 12 1008.4 1008.5 0.2
22/08:00pm 22.1 21.2 17.7 76 2.7 NNW 19 26 10 14 1008.2 1008.3 0.2
22/07:30pm 21.8 21.9 17.4 76 2.7 N 13 20 7 11 1008.1 1008.2 0.2
22/07:00pm 22.0 22.1 17.4 75 2.9 N 13 19 7 10 1008.0 1008.1 0.2
22/06:30pm 22.6 22.6 17.3 72 3.3 NNW 13 17 7 9 1008.2 1008.3 0.2
22/06:00pm 23.0 22.5 17.0 69 3.7 NNW 15 22 8 12 1008.0 1008.1 0.2
22/05:30pm 23.7 23.0 17.4 68 3.9 NNW 17 24 9 13 1007.9 1008.0 0.2
22/05:00pm 24.6 24.5 17.8 66 4.3 NW 15 20 8 11 1008.1 1008.2 0.2
22/04:30pm 25.0 23.0 17.5 63 4.7 NW 24 32 13 17 1008.1 1008.2 0.2
22/04:00pm 24.9 23.3 17.4 63 4.7 NW 22 35 12 19 1008.1 1008.2 0.2
22/03:30pm 25.5 23.4 17.2 60 5.2 NW 24 33 13 18 1008.2 1008.3 0.2
22/03:00pm 26.1 23.6 18.0 61 5.1 NW 28 35 15 19 1008.6 1008.7 0.2
22/02:30pm 25.7 22.3 17.6 61 5.1 NW 32 43 17 23 1008.9 1009.0 0.2
22/02:00pm 25.6 22.8 17.3 60 5.2 NW 28 37 15 20 1009.3 1009.4 0.2
22/01:30pm 25.9 24.3 18.3 63 4.8 NW 24 35 13 19 1009.8 1009.8 0.2
22/01:00pm 25.1 22.7 18.3 66 4.3 NW 28 37 15 20 1010.6 1010.7 0.2
22/12:30pm 24.9 23.3 18.4 67 4.1 NW 24 35 13 19 1011.1 1011.2 0.2
22/12:00pm 24.8 23.2 19.2 71 3.6 NNW 26 35 14 19 1011.8 1011.9 0.2
22/11:30am 24.4 23.4 19.7 75 3.0 NNW 24 35 13 19 1012.5 1012.6 0.2
22/11:00am 22.8 21.9 19.0 79 2.4 NNW 22 32 12 17 1013.1 1013.2 0.2
22/10:30am 21.8 21.3 19.2 85 1.7 NNW 20 28 11 15 1013.5 1013.6 0.2
22/10:25am 21.8 21.4 19.4 86 1.5 NNW 20 28 11 15 1013.6 1013.7 0.2
22/10:00am 20.3 20.1 19.3 94 0.6 NNW 19 26 10 14 1013.8 1013.9 0.0
22/09:30am 19.3 19.0 19.1 99 0.1 NNW 19 26 10 14 1014.1 1014.2 0.0
22/09:06am 18.9 18.8 18.7 99 0.1 NNW 17 26 9 14 1014.3 1014.4 0.0
22/09:00am 18.7 18.1 18.5 99 0.1 NNW 19 24 10 13 1014.3 1014.4 0.0
22/08:30am 18.3 17.9 18.1 99 0.1 NNW 17 24 9 13 1014.3 1014.4 0.0
22/08:00am 18.1 18.0 17.9 99 0.1 N 15 22 8 12 1014.3 1014.4 0.0
22/07:30am 17.9 17.7 17.7 99 0.1 N 15 20 8 11 1014.1 1014.2 0.0
22/07:00am 17.8 17.6 17.6 99 0.1 N 15 19 8 10 1013.9 1014.0 0.0
22/06:30am 17.5 17.9 17.3 99 0.1 N 11 13 6 7 1013.9 1014.0 0.0
22/06:05am 17.2 17.5 17.0 99 0.1 N 11 13 6 7 1013.9 1014.0 0.0
22/06:00am 17.3 17.6 17.1 99 0.1 N 11 15 6 8 1013.8 1013.9 0.0
22/05:30am 17.1 17.7 16.9 99 0.1 N 9 13 5 7 1014.0 1014.1 0.0
22/05:00am 16.5 16.9 16.3 99 0.1 N 9 11 5 6 1014.2 1014.3 0.0
22/04:30am 14.4 15.7 14.2 99 0.1 CALM 0 7 0 4 1014.2 1014.3 0.0
22/04:00am 13.5 14.5 13.3 99 0.1 CALM 0 0 0 0 1014.3 1014.4 0.0
22/03:30am 13.5 14.5 13.3 99 0.1 CALM 0 0 0 0 1014.6 1014.7 0.0
22/03:24am 13.6 14.7 13.4 99 0.1 CALM 0 0 0 0 1014.6 1014.7 0.0
22/03:06am 13.5 14.5 13.3 99 0.1 CALM 0 0 0 0 1014.8 1014.9 0.0
22/03:00am 13.3 14.3 13.1 99 0.1 CALM 0 0 0 0 1014.9 1015.0 0.0
22/02:30am 13.0 13.9 12.8 99 0.1 CALM 0 0 0 0 1015.2 1015.3 0.0
22/02:00am 14.5 15.9 14.3 99 0.1 CALM 0 6 0 3 1015.6 1015.7 0.0
22/01:40am 14.4 14.0 14.2 99 0.1 NNE 9 9 5 5 1015.7 1015.8 0.0
22/01:30am 14.3 13.9 14.1 99 0.1 NNE 9 11 5 6 1015.7 1015.8 0.0
22/01:00am 14.2 14.1 14.0 99 0.1 N 7 9 4 5 1015.9 1016.0 0.0
22/12:30am 13.8 13.8 13.6 99 0.1 N 6 7 3 4 1016.1 1016.2 0.0
22/12:00am 13.5 12.8 13.3 99 0.1 N 9 9 5 5 1016.3 1016.5 0.0
 
Date/Time
EST
Temp
°C
App
Temp
°C
Dew
Point
°C
Rel
Hum
%
Delta-T
°C
Wind Press
QNH
hPa
Press
MSL
hPa
Rain since
9am
mm
Dir  Spd
km/h
Gust
km/h
Spd
kts
Gust
kts
21/11:30pm 13.9 13.7 13.7 99 0.1 N 7 7 4 4 1016.3 1016.5 0.0
21/11:00pm 14.1 14.2 13.9 99 0.1 N 6 7 3 4 1016.5 1016.7 0.0
21/10:30pm 13.6 13.0 13.4 99 0.1 NNE 9 11 5 6 1016.6 1016.8 0.0
21/10:00pm 13.9 14.3 13.6 98 0.2 N 4 9 2 5 1016.9 1017.1 0.0
21/09:30pm 14.5 15.9 14.3 99 0.1 CALM 0 0 0 0 1017.0 1017.2 0.0
21/09:00pm 15.3 17.0 15.1 99 0.1 CALM 0 0 0 0 1017.0 1017.2 0.0
21/08:30pm 15.3 16.9 15.0 98 0.2 CALM 0 0 0 0 1016.7 1016.9 0.0
21/08:00pm 15.6 17.3 15.3 98 0.2 CALM 0 0 0 0 1016.4 1016.6 0.0
21/07:30pm 15.7 17.4 15.1 96 0.3 CALM 0 0 0 0 1016.2 1016.4 0.0
21/07:00pm 17.0 19.2 16.5 97 0.3 CALM 0 0 0 0 1015.9 1016.0 0.0
21/06:41pm 16.4 18.1 15.1 92 0.8 CALM 0 0 0 0 1015.9 1016.0 0.0

Other Formats:

Comma delimited format used in spreadsheet applications
http://www.bom.gov.au/fwo/IDN60801/IDN60801.95715.axf

JavaScript Object Notation format (JSON) in row-major order
http://www.bom.gov.au/fwo/IDN60801/IDN60801.95715.json